Time;durP1;ratioP1;P1;durP2;ratioP2;P2;SDS_P1;SDS_P2;PMS_P1;PMS_P2;Temp;Humidity;BMP_temperature;BMP_pressure;BME280_temperature;BME280_humidity;BME280_pressure;Samples;Min_cycle;Max_cycle;Signal;HPM_P1;HPM_P2
2023/10/02 00:01:17;;;;;;;15.45;8.15;;;;;;;9.80;100.00;99172.03;6103878;19;20016;-72
2023/10/02 00:03:21;;;;;;;15.90;7.70;;;;;;;9.79;100.00;99169.63;6110177;19;20005;-72
2023/10/02 00:05:40;;;;;;;13.93;6.95;;;;;;;9.79;100.00;99177.94;6110704;19;21412;-72
2023/10/02 00:07:45;;;;;;;13.63;7.55;;;;;;;9.76;100.00;99173.91;6110127;19;20105;-72
2023/10/02 00:09:49;;;;;;;14.18;6.88;;;;;;;9.75;100.00;99179.78;6109649;19;20442;-72
2023/10/02 00:11:49;;;;;;;14.88;7.47;;;;;;;9.72;100.00;99184.06;6107215;19;20030;-72
2023/10/02 00:14:18;;;;;;;13.68;7.03;;;;;;;9.65;100.00;99174.78;6108855;19;20014;-72
2023/10/02 00:16:10;;;;;;;14.90;7.20;;;;;;;9.62;100.00;99175.50;6108820;19;20007;-72
2023/10/02 00:18:10;;;;;;;15.88;7.57;;;;;;;9.59;100.00;99171.47;6108564;19;20388;-72
2023/10/02 00:20:20;;;;;;;15.75;6.95;;;;;;;9.55;100.00;99167.81;6107577;19;20458;-72
2023/10/02 00:22:37;;;;;;;16.52;7.35;;;;;;;9.55;100.00;99162.31;6109988;19;19998;-72
2023/10/02 00:24:39;;;;;;;15.57;7.78;;;;;;;9.52;100.00;99163.03;6109923;19;20030;-72
2023/10/02 00:26:39;;;;;;;15.15;7.40;;;;;;;9.48;100.00;99164.88;6109992;19;20485;-72
2023/10/02 00:28:40;;;;;;;14.13;7.13;;;;;;;9.45;100.00;99160.88;6109348;19;20007;-72
2023/10/02 00:30:42;;;;;;;12.65;6.28;;;;;;;9.41;100.00;99164.69;6107967;19;20010;-72
2023/10/02 00:32:45;;;;;;;16.42;8.32;;;;;;;9.35;100.00;99164.16;6109331;19;20007;-72
2023/10/02 00:34:46;;;;;;;15.07;7.15;;;;;;;9.36;100.00;99167.72;6107487;19;20052;-72
2023/10/02 00:36:47;;;;;;;15.18;8.02;;;;;;;9.31;100.00;99163.22;6109150;19;19998;-72
2023/10/02 00:38:50;;;;;;;15.05;7.32;;;;;;;9.27;100.00;99163.16;6108379;19;20007;-72
2023/10/02 00:40:50;;;;;;;12.50;7.25;;;;;;;9.25;100.00;99167.41;6105763;19;20007;-72
2023/10/02 00:45:38;;;;;;;16.23;7.88;;;;;;;9.31;100.00;99166.00;6108590;19;20010;-72
2023/10/02 00:47:40;;;;;;;15.27;7.55;;;;;;;9.29;100.00;99168.31;6109073;19;20010;-72
2023/10/02 00:49:41;;;;;;;12.77;6.32;;;;;;;9.24;100.00;99171.31;6097440;19;20535;-72
2023/10/02 00:51:42;;;;;;;12.27;6.47;;;;;;;9.19;100.00;99155.81;6106980;19;20006;-72
2023/10/02 00:53:48;;;;;;;13.23;6.88;;;;;;;9.17;100.00;99160.88;6108316;19;20030;-72
2023/10/02 00:55:49;;;;;;;14.38;7.07;;;;;;;9.16;100.00;99169.50;6108415;19;20002;-72
2023/10/02 00:57:52;;;;;;;16.92;7.03;;;;;;;9.14;100.00;99164.34;6108657;19;20083;-72
2023/10/02 00:59:59;;;;;;;14.68;7.53;;;;;;;9.16;100.00;99169.50;6107991;19;20002;-72
2023/10/02 01:02:05;;;;;;;13.90;6.93;;;;;;;9.14;100.00;99166.31;6107581;19;20091;-72
2023/10/02 01:04:11;;;;;;;11.55;6.63;;;;;;;9.12;100.00;99169.44;6108884;19;20003;-72
2023/10/02 01:06:11;;;;;;;13.85;7.25;;;;;;;9.08;100.00;99159.44;6108013;19;20010;-72
2023/10/02 01:10:40;;;;;;;15.13;6.78;;;;;;;9.12;100.00;99161.16;6107677;19;20014;-72
2023/10/02 01:12:43;;;;;;;15.00;7.53;;;;;;;9.16;100.00;99159.28;6108625;19;20010;-72
2023/10/02 01:14:50;;;;;;;14.73;7.50;;;;;;;9.16;100.00;99159.28;6109199;19;20262;-72
2023/10/02 01:16:51;;;;;;;12.75;6.80;;;;;;;9.16;100.00;99159.28;6108497;19;20011;-72
2023/10/02 01:18:52;;;;;;;13.23;7.22;;;;;;;9.21;100.00;99158.22;6108661;19;20446;-72
2023/10/02 01:20:56;;;;;;;17.33;7.07;;;;;;;9.20;100.00;99154.66;6106967;19;19999;-72
2023/10/02 01:23:12;;;;;;;14.52;7.10;;;;;;;9.25;100.00;99159.91;6108340;19;20007;-72
2023/10/02 01:25:16;;;;;;;15.15;6.97;;;;;;;9.25;100.00;99154.41;6108762;19;20011;-72
2023/10/02 01:27:18;;;;;;;18.02;7.35;;;;;;;9.22;100.00;99148.78;6108579;19;20039;-72
2023/10/02 01:29:19;;;;;;;14.45;6.57;;;;;;;9.17;100.00;99155.34;6107120;19;20014;-72
2023/10/02 01:31:35;;;;;;;12.75;6.97;;;;;;;9.11;100.00;99156.78;6106777;19;20330;-72
2023/10/02 01:33:35;;;;;;;18.25;6.85;;;;;;;9.08;100.00;99149.19;6108833;19;20009;-72
2023/10/02 01:35:36;;;;;;;14.13;6.63;;;;;;;9.03;100.00;99145.91;6106530;19;20031;-72
2023/10/02 01:37:37;;;;;;;16.55;7.43;;;;;;;8.99;100.00;99145.78;6108990;19;20578;-72
2023/10/02 01:39:38;;;;;;;24.88;7.57;;;;;;;8.95;100.00;99147.66;6107606;19;20018;-72
2023/10/02 01:41:39;;;;;;;11.90;7.03;;;;;;;8.89;100.00;99144.31;6106029;19;19999;-72
2023/10/02 01:43:45;;;;;;;14.93;7.07;;;;;;;8.84;100.00;99152.84;6108314;19;20077;-72
2023/10/02 01:45:46;;;;;;;13.98;7.28;;;;;;;8.85;100.00;99156.41;6108340;19;20038;-72
2023/10/02 01:47:46;;;;;;;15.93;7.15;;;;;;;8.85;100.00;99148.91;6107610;19;20023;-72
2023/10/02 01:49:47;;;;;;;12.48;6.78;;;;;;;8.86;100.00;99152.50;6104011;19;20022;-72
2023/10/02 01:51:50;;;;;;;10.60;5.53;;;;;;;8.85;100.00;99148.91;6099288;19;20344;-72
2023/10/02 01:53:54;;;;;;;14.60;6.80;;;;;;;8.87;100.00;99152.16;6100991;19;20352;-72
2023/10/02 01:56:10;;;;;;;13.70;7.03;;;;;;;8.87;100.00;99148.59;6101176;19;20518;-72
2023/10/02 01:58:17;;;;;;;13.43;6.93;;;;;;;8.87;100.00;99149.41;6100127;19;20323;-72
2023/10/02 02:00:23;;;;;;;15.50;7.13;;;;;;;8.85;100.00;99140.66;6099812;19;20490;-72
2023/10/02 02:02:23;;;;;;;13.77;6.60;;;;;;;8.81;100.00;99145.28;6100529;19;20029;-72
2023/10/02 02:04:27;;;;;;;13.15;6.88;;;;;;;8.79;100.00;99144.81;6100944;19;20334;-72
2023/10/02 02:06:28;;;;;;;16.08;7.35;;;;;;;8.73;100.00;99141.50;6101506;19;20006;-72
2023/10/02 02:08:35;;;;;;;13.48;6.82;;;;;;;8.75;100.00;99140.34;6100628;19;20006;-72
2023/10/02 02:10:35;;;;;;;13.60;6.30;;;;;;;8.76;100.00;99128.16;6099610;19;20344;-72
2023/10/02 02:12:44;;;;;;;12.35;6.38;;;;;;;8.76;100.00;99133.66;6099786;19;20644;-72
2023/10/02 02:14:49;;;;;;;14.75;6.60;;;;;;;8.75;100.00;99135.63;6100686;19;20010;-72
2023/10/02 02:16:50;;;;;;;13.95;7.13;;;;;;;8.72;100.00;99128.88;6100066;19;20671;-72
2023/10/02 02:18:53;;;;;;;12.43;6.20;;;;;;;8.73;100.00;99132.41;6100973;19;20268;-72
2023/10/02 02:21:02;;;;;;;15.10;6.55;;;;;;;8.73;100.00;99135.97;6099094;19;20267;-72
2023/10/02 02:23:07;;;;;;;20.05;7.18;;;;;;;8.74;100.00;99128.50;6100122;19;20376;-72
2023/10/02 02:25:08;;;;;;;13.63;6.53;;;;;;;8.77;100.00;99127.81;6100240;19;20379;-72
2023/10/02 02:27:08;;;;;;;14.73;6.80;;;;;;;8.77;100.00;99132.50;6098699;19;20020;-72
2023/10/02 02:29:25;;;;;;;14.10;6.95;;;;;;;8.77;100.00;99124.22;6099002;19;20011;-72
2023/10/02 02:31:31;;;;;;;12.63;6.50;;;;;;;8.80;100.00;99129.06;6099190;19;20428;-72
2023/10/02 02:33:35;;;;;;;13.43;6.07;;;;;;;8.81;100.00;99130.69;6099713;19;20459;-72
2023/10/02 02:35:35;;;;;;;14.95;7.10;;;;;;;8.81;100.00;99128.72;6098166;19;20002;-72
2023/10/02 02:37:36;;;;;;;13.35;6.85;;;;;;;8.82;100.00;99135.84;6099044;19;20010;-72
2023/10/02 02:39:37;;;;;;;13.93;6.95;;;;;;;8.81;100.00;99123.19;6099675;19;20403;-72
2023/10/02 02:41:38;;;;;;;15.25;7.05;;;;;;;8.81;100.00;99131.47;6098954;19;20026;-72
2023/10/02 02:43:38;;;;;;;12.90;7.22;;;;;;;8.78;100.00;99128.63;6099418;19;20439;-72
2023/10/02 02:45:38;;;;;;;14.40;6.10;;;;;;;8.78;100.00;99123.09;6099591;19;20322;-72
2023/10/02 02:47:51;;;;;;;14.82;6.60;;;;;;;8.79;100.00;99121.94;6098889;19;20010;-72
2023/10/02 02:49:52;;;;;;;14.65;7.68;;;;;;;8.77;100.00;99127.00;6100145;19;20021;-72
2023/10/02 02:51:55;;;;;;;14.05;7.82;;;;;;;8.72;100.00;99128.88;6104998;19;20006;-72
2023/10/02 02:53:55;;;;;;;15.25;7.03;;;;;;;8.70;100.00;99128.41;6104011;19;20014;-72
2023/10/02 02:56:14;;;;;;;16.95;7.97;;;;;;;8.65;100.00;99130.59;6106162;19;20323;-72
2023/10/02 02:58:15;;;;;;;15.88;6.97;;;;;;;8.58;100.00;99120.16;6003674;19;2006545;-72
2023/10/02 03:00:29;;;;;;;16.15;7.63;;;;;;;8.55;100.00;99128.34;6104451;19;19999;-72
2023/10/02 03:02:31;;;;;;;13.43;6.43;;;;;;;8.49;100.00;99132.50;6107212;19;20518;-72
2023/10/02 03:04:31;;;;;;;13.02;7.00;;;;;;;8.43;100.00;99132.72;6111844;19;20327;-72
2023/10/02 03:06:34;;;;;;;12.05;6.80;;;;;;;8.41;100.00;99139.75;6112712;19;20002;-72
2023/10/02 03:08:41;;;;;;;14.18;6.75;;;;;;;8.39;100.00;99139.28;6111544;19;20570;-72
2023/10/02 03:10:46;;;;;;;14.38;7.05;;;;;;;8.38;100.00;99143.19;6110410;19;20014;-72
2023/10/02 03:12:48;;;;;;;17.15;6.95;;;;;;;8.38;100.00;99148.72;6112378;19;20018;-72
2023/10/02 03:14:49;;;;;;;14.80;7.38;;;;;;;8.38;100.00;99138.50;6111644;19;20035;-72
2023/10/02 03:16:51;;;;;;;14.68;7.20;;;;;;;8.35;100.00;99136.41;6112308;19;19998;-72
2023/10/02 03:18:54;;;;;;;12.45;6.68;;;;;;;8.40;100.00;99136.19;6112194;19;20020;-72
2023/10/02 03:20:56;;;;;;;14.68;7.70;;;;;;;8.41;100.00;99137.78;6110724;19;20328;-72
2023/10/02 03:22:57;;;;;;;13.82;6.75;;;;;;;8.42;100.00;99136.63;6111123;19;20002;-72
2023/10/02 03:25:24;;;;;;;12.65;6.07;;;;;;;8.43;100.00;99143.75;6111263;19;20395;-72
2023/10/02 03:27:19;;;;;;;17.67;7.18;;;;;;;8.41;100.00;99140.53;6112117;19;20022;-72
2023/10/02 03:29:22;;;;;;;14.50;7.00;;;;;;;8.43;100.00;99134.66;6110801;19;20414;-72
2023/10/02 03:31:34;;;;;;;13.68;6.80;;;;;;;8.44;100.00;99139.88;6111267;19;20011;-72
2023/10/02 03:33:34;;;;;;;15.95;6.90;;;;;;;8.42;100.00;99133.88;6111689;19;20025;-72
2023/10/02 03:35:42;;;;;;;13.75;7.22;;;;;;;8.45;100.00;99129.63;6109334;19;20010;-72
2023/10/02 03:37:43;;;;;;;13.90;6.38;;;;;;;8.47;100.00;99129.28;6111603;19;20035;-72
2023/10/02 03:40:00;;;;;;;13.57;6.68;;;;;;;8.46;100.00;99138.72;6109540;19;20002;-72
2023/10/02 03:42:02;;;;;;;12.25;6.35;;;;;;;8.43;100.00;99138.22;6109433;19;20499;-72
2023/10/02 03:44:03;;;;;;;13.85;6.50;;;;;;;8.37;100.00;99136.88;6110520;19;20021;-72
2023/10/02 03:46:13;;;;;;;14.60;6.63;;;;;;;8.35;100.00;99138.38;6110225;19;20022;-72
2023/10/02 03:48:15;;;;;;;11.65;6.65;;;;;;;8.32;100.00;99134.31;6111731;19;20317;-72
2023/10/02 03:50:16;;;;;;;13.60;6.73;;;;;;;8.29;100.00;99129.50;6110015;19;20502;-72
2023/10/02 03:52:17;;;;;;;11.43;6.27;;;;;;;8.24;100.00;99124.22;6110210;19;20011;-72
2023/10/02 03:54:18;;;;;;;17.17;6.82;;;;;;;8.22;100.00;99123.78;6112035;19;20006;-72
2023/10/02 03:56:36;;;;;;;15.20;7.38;;;;;;;8.18;100.00;99129.16;6111923;19;20015;-72
2023/10/02 03:58:38;;;;;;;11.45;6.00;;;;;;;8.21;100.00;99124.94;6110916;19;19999;-72
2023/10/02 04:00:46;;;;;;;13.00;6.60;;;;;;;8.22;100.00;99126.53;6109336;19;20407;-71
2023/10/02 04:02:51;;;;;;;13.82;6.32;;;;;;;8.21;100.00;99122.19;6111742;19;20023;-72
2023/10/02 04:04:52;;;;;;;11.80;6.57;;;;;;;8.23;100.00;99117.09;6110847;19;20007;-72
2023/10/02 04:06:53;;;;;;;12.73;5.90;;;;;;;8.24;100.00;99118.72;6110253;19;20474;-71
2023/10/02 04:09:06;;;;;;;15.23;5.93;;;;;;;8.20;100.00;99114.25;6109837;19;20015;-71
2023/10/02 04:11:09;;;;;;;13.25;5.80;;;;;;;8.15;100.00;99113.31;6108301;19;20006;-72
2023/10/02 04:13:09;;;;;;;14.57;6.53;;;;;;;8.14;100.00;99116.44;6109887;19;20011;-72
2023/10/02 04:15:11;;;;;;;14.35;6.72;;;;;;;8.12;100.00;99110.47;6108010;19;20015;-72
2023/10/02 04:19:24;;;;;;;13.63;6.30;;;;;;;8.13;100.00;99101.84;6109979;19;20258;-71
2023/10/02 04:21:25;;;;;;;17.63;6.82;;;;;;;8.07;100.00;99097.72;6109713;19;20013;-72
2023/10/02 04:23:25;;;;;;;13.60;6.15;;;;;;;8.04;100.00;99097.63;6110109;19;20010;-72
2023/10/02 04:25:26;;;;;;;15.95;7.45;;;;;;;8.00;100.00;99099.44;6111069;19;20127;-72
2023/10/02 04:30:06;;;;;;;20.13;6.63;;;;;;;7.97;100.00;99092.69;6109965;19;20003;-71
2023/10/02 04:32:18;;;;;;;16.67;8.02;;;;;;;8.01;100.00;99092.78;6107831;19;20097;-72
2023/10/02 04:34:24;;;;;;;14.63;6.10;;;;;;;8.00;100.00;99088.41;6110620;19;20010;-71
2023/10/02 04:36:34;;;;;;;18.02;6.57;;;;;;;8.04;100.00;99094.88;6107563;19;20110;-72
2023/10/02 04:38:51;;;;;;;16.00;6.45;;;;;;;8.02;100.00;99092.44;6110164;19;20019;-72
2023/10/02 04:40:55;;;;;;;16.40;6.68;;;;;;;8.03;100.00;99091.31;6109440;19;20312;-72
2023/10/02 04:42:58;;;;;;;16.88;7.30;;;;;;;8.04;100.00;99100.38;6110172;19;20566;-72
2023/10/02 04:44:58;;;;;;;15.95;6.30;;;;;;;8.00;100.00;99099.44;6109241;19;20295;-72
2023/10/02 04:47:00;;;;;;;20.85;7.78;;;;;;;7.98;100.00;99096.25;6109876;19;20517;-72
2023/10/02 04:49:01;;;;;;;20.50;6.88;;;;;;;7.96;100.00;99106.81;6108970;19;20025;-72
2023/10/02 04:51:07;;;;;;;19.48;6.25;;;;;;;7.99;100.00;99103.34;6108672;19;20037;-71
2023/10/02 04:53:22;;;;;;;21.27;7.82;;;;;;;7.97;100.00;99105.66;6110072;19;20006;-72
2023/10/02 04:55:24;;;;;;;18.52;7.60;;;;;;;7.99;100.00;99108.88;6110516;19;20010;-72
2023/10/02 04:57:24;;;;;;;22.83;7.47;;;;;;;7.99;100.00;99103.34;6110205;19;20243;-72
2023/10/02 04:59:50;;;;;;;14.55;6.35;;;;;;;7.99;100.00;99100.59;6110185;19;20006;-71
2023/10/02 05:02:17;;;;;;;27.60;7.90;;;;;;;7.95;100.00;99107.97;6107917;19;20011;-72
2023/10/02 05:04:06;;;;;;;20.20;7.10;;;;;;;7.89;100.00;99102.66;6108484;19;20017;-72
2023/10/02 05:06:06;;;;;;;16.05;7.00;;;;;;;7.85;100.00;99098.97;6108860;19;20011;-71
2023/10/02 05:08:17;;;;;;;16.77;7.28;;;;;;;7.88;100.00;99097.50;6108553;19;19994;-71
2023/10/02 05:10:19;;;;;;;18.10;6.78;;;;;;;7.86;100.00;99100.63;6108497;19;20074;-72
2023/10/02 05:12:22;;;;;;;16.95;6.88;;;;;;;7.85;100.00;99101.75;6109586;19;20031;-72
2023/10/02 05:14:27;;;;;;;18.42;7.63;;;;;;;7.87;100.00;99099.47;6109273;19;20010;-72
2023/10/02 05:16:38;;;;;;;13.35;6.22;;;;;;;7.86;100.00;99091.53;6110340;19;20017;-71
2023/10/02 05:18:44;;;;;;;13.55;7.07;;;;;;;7.85;100.00;99098.97;6108348;19;20561;-71
2023/10/02 05:20:47;;;;;;;15.40;6.50;;;;;;;7.85;100.00;99093.47;6107314;19;20002;-72
2023/10/02 05:22:58;;;;;;;14.90;6.72;;;;;;;7.86;100.00;99097.88;6110175;19;20003;-72
2023/10/02 05:25:00;;;;;;;12.93;6.57;;;;;;;7.82;100.00;99105.19;6109020;19;20011;-71
2023/10/02 05:27:03;;;;;;;17.13;7.77;;;;;;;7.82;100.00;99112.66;6106270;19;20006;-72
2023/10/02 05:29:05;;;;;;;26.83;8.13;;;;;;;7.82;100.00;99102.44;6108979;19;20252;-72
2023/10/02 05:31:07;;;;;;;19.95;7.40;;;;;;;7.82;100.00;99101.63;6107708;19;20027;-71
2023/10/02 05:33:08;;;;;;;16.13;7.93;;;;;;;7.81;100.00;99095.31;6109081;19;20003;-71
2023/10/02 05:37:13;;;;;;;19.27;8.38;;;;;;;7.85;100.00;99101.75;6108771;19;20014;-72
2023/10/02 05:39:31;;;;;;;12.65;7.00;;;;;;;7.86;100.00;99106.13;6107946;19;20736;-71
2023/10/02 05:41:41;;;;;;;16.92;7.45;;;;;;;7.91;100.00;99109.78;6107165;19;20025;-72
2023/10/02 05:43:55;;;;;;;13.43;6.65;;;;;;;7.97;100.00;99106.47;6109216;19;20353;-71
2023/10/02 05:45:55;;;;;;;17.55;8.63;;;;;;;8.04;100.00;99114.97;6108212;19;20018;-71
2023/10/02 05:47:56;;;;;;;18.38;7.82;;;;;;;8.07;100.00;99103.22;6108045;19;20477;-71
2023/10/02 05:49:56;;;;;;;22.17;7.60;;;;;;;8.12;100.00;99103.00;6097189;19;20017;-72
2023/10/02 05:52:00;;;;;;;17.17;7.90;;;;;;;8.20;100.00;99106.78;6107353;19;20014;-72
2023/10/02 05:54:01;;;;;;;16.52;7.97;;;;;;;8.28;100.00;99108.63;6108021;19;20014;-72
2023/10/02 05:56:12;;;;;;;17.20;7.28;;;;;;;8.32;100.00;99109.50;6107422;19;20007;-71
2023/10/02 05:58:20;;;;;;;17.25;8.38;;;;;;;8.41;100.00;99112.97;6107437;19;20449;-71
2023/10/02 06:00:20;;;;;;;19.55;7.47;;;;;;;8.48;100.00;99108.81;6105676;19;20336;-72
2023/10/02 06:02:23;;;;;;;18.02;7.68;;;;;;;8.57;100.00;99117.75;6107220;19;20033;-72
2023/10/02 06:04:23;;;;;;;16.20;7.53;;;;;;;8.66;100.00;99112.91;6107599;19;20078;-72
2023/10/02 06:06:25;;;;;;;19.35;7.97;;;;;;;8.75;100.00;99119.06;6108576;19;20010;-71
2023/10/02 06:08:32;;;;;;;20.33;7.43;;;;;;;8.83;100.00;99109.03;6106612;19;20014;-72
2023/10/02 06:10:34;;;;;;;18.75;7.70;;;;;;;8.91;100.00;99110.84;6106676;19;20490;-72
2023/10/02 06:12:36;;;;;;;16.02;7.03;;;;;;;8.99;100.00;99118.97;6106765;19;20006;-72
2023/10/02 06:14:39;;;;;;;14.65;8.05;;;;;;;9.10;100.00;99121.22;6107112;19;20003;-72
2023/10/02 06:16:40;;;;;;;;;;;;;;;9.19;100.00;99122.69;6108284;19;20020;-72
2023/10/02 06:18:40;;;;;;;12.85;6.03;;;;;;;9.26;100.00;99119.31;6107582;19;19990;-72
2023/10/02 06:20:57;;;;;;;14.45;7.15;;;;;;;9.34;100.00;99115.56;6105383;19;20519;-72
2023/10/02 06:23:06;;;;;;;15.13;7.65;;;;;;;9.45;100.00;99124.97;6107490;19;20006;-71
2023/10/02 06:25:17;;;;;;;24.10;7.95;;;;;;;9.56;100.00;99130.75;6107511;19;20010;-72
2023/10/02 06:27:22;;;;;;;21.30;7.63;;;;;;;9.68;100.00;99127.09;6107427;19;20467;-72
2023/10/02 06:29:22;;;;;;;18.92;8.23;;;;;;;9.75;100.00;99121.75;6106992;19;20037;-72
2023/10/02 06:31:31;;;;;;;19.17;7.80;;;;;;;9.85;100.00;99126.75;6105169;19;20415;-72
2023/10/02 06:33:31;;;;;;;28.17;10.68;;;;;;;9.96;100.00;99135.31;6107230;19;20018;-72
2023/10/02 06:35:31;;;;;;;16.95;8.55;;;;;;;10.02;100.00;99126.38;6105059;19;20007;-72
2023/10/02 06:37:35;;;;;;;17.52;8.52;;;;;;;10.12;100.00;99122.28;6108081;19;20034;-72
2023/10/02 06:39:36;;;;;;;23.17;9.07;;;;;;;10.20;100.00;99120.47;6113134;19;20375;-72
2023/10/02 06:41:38;;;;;;;19.50;8.48;;;;;;;10.28;100.00;99127.81;6110930;19;20014;-72
2023/10/02 06:43:39;;;;;;;17.10;7.87;;;;;;;10.36;100.00;99121.28;6112124;19;20086;-72
2023/10/02 06:45:52;;;;;;;19.10;8.13;;;;;;;10.43;100.00;99115.09;6113071;19;20280;-72
2023/10/02 06:47:56;;;;;;;21.88;8.23;;;;;;;10.51;100.00;99120.44;6110673;19;20029;-72
2023/10/02 06:50:03;;;;;;;14.27;8.38;;;;;;;10.61;100.00;99119.06;6107196;19;20483;-72
2023/10/02 06:52:13;;;;;;;21.95;7.93;;;;;;;10.72;100.00;99113.72;6102949;19;20003;-72
2023/10/02 06:54:14;;;;;;;21.25;7.65;;;;;;;10.78;100.00;99128.91;6101723;19;20019;-72
2023/10/02 06:56:19;;;;;;;14.27;8.35;;;;;;;10.87;100.00;99129.47;6105243;19;20263;-72
2023/10/02 06:58:20;;;;;;;16.30;7.95;;;;;;;10.93;100.00;99120.53;6104311;19;20018;-72
2023/10/02 07:00:21;;;;;;;14.93;8.05;;;;;;;10.95;100.00;99120.94;6103067;19;20102;-72
2023/10/02 07:02:26;;;;;;;15.88;8.93;;;;;;;11.02;100.00;99128.59;6102559;19;20458;-72
2023/10/02 07:04:35;;;;;;;19.63;8.30;;;;;;;11.06;100.00;99129.47;6105960;19;20014;-72
2023/10/02 07:06:39;;;;;;;18.17;8.52;;;;;;;11.20;100.00;99126.19;6104067;19;20006;-72
2023/10/02 07:08:41;;;;;;;15.88;9.10;;;;;;;11.30;100.00;99133.09;6105194;19;20348;-72
2023/10/02 07:10:42;;;;;;;19.60;8.90;;;;;;;11.43;100.00;99126.22;6104662;19;20010;-72
2023/10/02 07:12:43;;;;;;;18.55;7.90;;;;;;;11.49;100.00;99125.53;6104921;19;20500;-72
2023/10/02 07:14:45;;;;;;;17.88;9.23;;;;;;;11.57;100.00;99131.19;6103893;19;20011;-72
2023/10/02 07:16:47;;;;;;;22.60;9.57;;;;;;;11.69;100.00;99131.84;6103108;19;20063;-72
2023/10/02 07:18:53;;;;;;;22.50;9.43;;;;;;;11.80;100.00;99134.81;6105000;19;20093;-72
2023/10/02 07:20:53;;;;;;;21.92;8.95;;;;;;;11.87;100.00;99134.13;6104448;19;20006;-72
2023/10/02 07:22:54;;;;;;;25.55;9.93;;;;;;;11.90;100.00;99123.09;6098894;19;20099;-72
2023/10/02 07:24:58;;;;;;;21.25;10.15;;;;;;;11.95;100.00;99135.84;6102245;19;20010;-72
2023/10/02 07:26:59;;;;;;;31.65;10.20;;;;;;;12.04;100.00;99133.63;6101874;19;20006;-72
2023/10/02 07:29:00;;;;;;;34.70;10.05;;;;;;;12.09;100.00;99130.56;6100784;19;20030;-72
2023/10/02 07:31:01;;;;;;;20.90;9.20;;;;;;;12.11;100.00;99135.72;6100818;19;20002;-72
2023/10/02 07:33:03;;;;;;;20.90;8.32;;;;;;;12.16;100.00;99129.84;6101893;19;20528;-72
2023/10/02 07:35:10;;;;;;;22.42;8.68;;;;;;;12.18;100.00;99144.97;6098958;19;20006;-72
2023/10/02 07:37:13;;;;;;;23.80;9.60;;;;;;;12.19;100.00;99143.78;6102779;19;20011;-72
2023/10/02 07:41:33;;;;;;;18.60;8.02;;;;;;;12.24;100.00;99131.53;6101580;19;20019;-72
2023/10/02 07:43:34;;;;;;;18.13;8.38;;;;;;;12.30;100.00;99141.16;6102362;19;20070;-72
2023/10/02 07:45:34;;;;;;;22.15;9.60;;;;;;;12.38;100.00;99129.00;6100968;19;20003;-72
2023/10/02 07:47:39;;;;;;;23.35;9.25;;;;;;;12.47;100.00;99123.97;6100627;19;20010;-72
2023/10/02 07:49:40;;;;;;;26.85;8.95;;;;;;;12.56;100.00;99134.78;6100838;19;20014;-72
2023/10/02 07:51:40;;;;;;;20.42;8.00;;;;;;;12.68;100.00;99134.56;6107058;19;20010;-72
2023/10/02 07:53:41;;;;;;;23.13;10.43;;;;;;;12.77;100.00;99139.84;6107636;19;20332;-72
2023/10/02 07:55:47;;;;;;;16.85;8.13;;;;;;;12.85;100.00;99133.22;6109260;19;20010;-72
2023/10/02 07:57:58;;;;;;;20.73;9.10;;;;;;;12.92;100.00;99127.75;6108314;19;20030;-73
2023/10/02 08:02:34;;;;;;;21.63;10.15;;;;;;;13.22;100.00;99127.72;6004821;19;2005936;-72
2023/10/02 08:04:47;;;;;;;17.58;8.35;;;;;;;13.40;100.00;99125.13;6107587;19;20007;-72
2023/10/02 08:06:48;;;;;;;;;;;;;;;13.50;100.00;99124.47;6111055;19;20011;-72
2023/10/02 08:09:35;;;;;;;15.95;8.43;;;;;;;13.56;100.00;99114.56;6109127;19;19915;-72
2023/10/02 08:11:11;;;;;;;24.17;9.65;;;;;;;13.63;100.00;99124.97;6106948;19;20035;-72
2023/10/02 08:13:13;;;;;;;18.90;9.07;;;;;;;13.69;100.00;99117.88;6107971;19;20014;-72
2023/10/02 08:15:32;;;;;;;;;;;;;;;13.86;100.00;99125.59;6108817;19;20359;-72
2023/10/02 08:19:54;;;;;;;18.60;7.68;;;;;;;14.04;100.00;99117.38;6107706;19;20068;-72
2023/10/02 08:21:55;;;;;;;19.15;8.25;;;;;;;14.14;100.00;99121.44;6107285;19;20003;-72
2023/10/02 08:23:56;;;;;;;18.52;8.75;;;;;;;14.23;100.00;99113.53;6108199;19;20002;-72
2023/10/02 08:26:03;;;;;;;15.18;7.70;;;;;;;14.30;100.00;99110.81;6106655;19;20812;-72
2023/10/02 08:28:07;;;;;;;17.58;8.82;;;;;;;14.40;100.00;99112.88;6107553;19;20014;-72
2023/10/02 08:30:27;;;;;;;18.00;8.93;;;;;;;14.53;100.00;99121.72;6108609;19;20089;-72
2023/10/02 08:32:30;;;;;;;17.45;7.60;;;;;;;14.68;100.00;99114.25;6109538;19;20355;-72
2023/10/02 08:34:31;;;;;;;14.02;7.40;;;;;;;14.77;100.00;99107.13;6110681;19;20006;-72
2023/10/02 08:36:32;;;;;;;15.07;6.78;;;;;;;14.91;100.00;99105.63;6109254;19;20021;-73
2023/10/02 08:38:33;;;;;;;13.30;7.05;;;;;;;15.06;100.00;99115.59;6108744;19;20339;-72
2023/10/02 08:40:34;;;;;;;18.00;8.55;;;;;;;15.21;100.00;99119.22;6107814;19;20039;-72
2023/10/02 08:42:34;;;;;;;15.90;7.90;;;;;;;15.29;100.00;99109.69;6108183;19;20485;-72
2023/10/02 08:44:40;;;;;;;17.10;7.72;;;;;;;15.42;100.00;99122.09;6110247;19;20015;-72
2023/10/02 08:46:43;;;;;;;16.13;7.53;;;;;;;15.47;100.00;99118.91;6110752;19;20023;-72
2023/10/02 08:48:45;;;;;;;16.30;7.30;;;;;;;15.58;100.00;99119.72;6110313;19;20052;-72
2023/10/02 08:50:49;;;;;;;15.55;7.20;;;;;;;15.75;100.00;99120.97;6108621;19;20010;-72
2023/10/02 08:52:50;;;;;;;16.60;7.70;;;;;;;15.98;100.00;99121.41;6107248;19;20336;-72
2023/10/02 08:54:50;;;;;;;14.93;6.75;;;;;;;16.13;100.00;99119.38;6106912;19;20029;-72
2023/10/02 08:57:06;;;;;;;14.65;6.93;;;;;;;16.21;100.00;99115.38;6105788;19;20455;-72
2023/10/02 08:59:18;;;;;;;14.38;6.90;;;;;;;16.25;100.00;99118.97;6109384;19;20032;-72
2023/10/02 09:01:20;;;;;;;19.85;7.82;;;;;;;16.42;100.00;99114.56;6106525;19;20394;-72
2023/10/02 09:03:23;;;;;;;18.83;6.97;;;;;;;16.68;100.00;99116.09;6109644;19;20502;-72
2023/10/02 09:05:30;;;;;;;13.75;7.07;;;;;;;16.76;100.00;99114.91;6109462;19;20463;-72
2023/10/02 09:08:00;;;;;;;13.60;6.03;;;;;;;16.89;100.00;99114.47;6109310;19;20101;-72
2023/10/02 09:10:12;;;;;;;12.30;6.47;;;;;;;16.99;100.00;99113.63;6109537;19;20062;-73
2023/10/02 09:12:17;;;;;;;15.30;7.17;;;;;;;17.00;100.00;99121.63;6005804;19;2005869;-72
2023/10/02 09:16:18;;;;;;;13.63;7.18;;;;;;;17.20;100.00;99119.13;6106713;19;20015;-72
2023/10/02 09:18:34;;;;;;;15.88;6.45;;;;;;;17.33;100.00;99116.66;6109140;19;20497;-72
2023/10/02 09:20:52;;;;;;;16.50;7.40;;;;;;;17.45;100.00;99118.19;6107046;19;20007;-72
2023/10/02 09:23:08;;;;;;;16.10;6.43;;;;;;;17.64;100.00;99112.88;6109813;19;20015;-72
2023/10/02 09:25:18;;;;;;;12.45;6.85;;;;;;;17.80;100.00;99123.59;6109510;19;20018;-72
2023/10/02 09:27:24;;;;;;;13.77;6.85;;;;;;;17.93;100.00;99126.69;6107723;19;20017;-73
2023/10/02 09:29:25;;;;;;;15.70;6.65;;;;;;;17.99;100.00;99121.44;6108892;19;20014;-72
2023/10/02 09:31:30;;;;;;;14.55;6.40;;;;;;;18.04;100.00;99115.38;6106433;19;20006;-72
2023/10/02 09:33:33;;;;;;;12.52;5.88;;;;;;;18.29;100.00;99116.00;6108911;19;20490;-72
2023/10/02 09:35:41;;;;;;;;;;;;;;;18.49;100.00;99119.78;6107363;19;20003;-72
2023/10/02 09:37:45;;;;;;;12.35;6.07;;;;;;;18.63;100.00;99115.25;6107458;19;20362;-72
2023/10/02 09:39:45;;;;;;;12.25;6.00;;;;;;;18.73;100.00;99111.56;6108395;19;20007;-72
2023/10/02 09:41:47;;;;;;;12.45;6.45;;;;;;;18.94;100.00;99116.09;6107484;19;20247;-72
2023/10/02 09:43:49;;;;;;;14.38;6.60;;;;;;;19.00;100.00;99108.81;6108141;19;20009;-72
2023/10/02 09:45:58;;;;;;;12.75;5.95;;;;;;;19.12;100.00;99104.69;6108737;19;20374;-72
2023/10/02 09:48:05;;;;;;;12.75;6.28;;;;;;;19.21;100.00;99104.97;6108427;19;20009;-72
2023/10/02 09:50:23;;;;;;;14.05;6.38;;;;;;;19.34;100.00;99095.53;6106501;19;20398;-72
2023/10/02 09:52:34;;;;;;;10.73;5.85;;;;;;;19.58;100.00;99099.25;6107693;19;20010;-72
2023/10/02 09:54:41;;;;;;;11.35;5.85;;;;;;;19.71;100.00;99095.88;6108167;19;20458;-72
2023/10/02 09:57:19;;;;;;;13.20;5.93;;;;;;;19.74;100.00;99092.19;6106972;19;20013;-72
2023/10/02 09:59:22;;;;;;;10.70;5.65;;;;;;;19.96;100.00;99089.84;6108289;19;20407;-72
2023/10/02 10:03:30;;;;;;;12.20;5.75;;;;;;;20.23;100.00;99081.34;6108331;19;20010;-73